createdAt,value
2022-11-29T00:01:43.876Z,100160.00
2022-11-29T00:04:13.136Z,100160.00
2022-11-29T00:06:41.769Z,100157.00
2022-11-29T00:09:13.184Z,100154.00
2022-11-29T00:12:00.784Z,100155.00
2022-11-29T00:14:30.954Z,100151.00
2022-11-29T00:17:04.315Z,100155.00
2022-11-29T00:19:33.731Z,100153.00
2022-11-29T00:22:03.075Z,100159.00
2022-11-29T00:24:32.880Z,100143.00
2022-11-29T00:27:02.059Z,100154.00
2022-11-29T00:29:31.536Z,100152.00
2022-11-29T00:32:01.876Z,100153.00
2022-11-29T00:34:30.882Z,100152.00
2022-11-29T00:36:59.725Z,100160.00
2022-11-29T00:39:28.504Z,100155.00
2022-11-29T00:41:57.331Z,100148.00
2022-11-29T00:44:26.187Z,100154.00
2022-11-29T00:46:54.878Z,100143.00
2022-11-29T00:49:24.981Z,100150.00
2022-11-29T00:51:53.675Z,100146.00
2022-11-29T00:54:22.360Z,100150.00
2022-11-29T00:56:50.984Z,100158.00
2022-11-29T00:59:19.672Z,100147.00
2022-11-29T01:01:48.337Z,100149.00
2022-11-29T01:04:17.052Z,100151.00
2022-11-29T01:06:47.140Z,100141.00
2022-11-29T01:09:15.908Z,100151.00
2022-11-29T01:11:44.652Z,100146.00
2022-11-29T01:14:14.418Z,100156.00
2022-11-29T01:16:43.311Z,100156.00
2022-11-29T01:19:11.992Z,100158.00
2022-11-29T01:21:41.228Z,100158.00
2022-11-29T01:24:11.339Z,100167.00
2022-11-29T01:26:40.080Z,100164.00
2022-11-29T01:29:08.753Z,100159.00
2022-11-29T01:31:37.484Z,100161.00
2022-11-29T01:34:07.868Z,100166.00
2022-11-29T01:36:36.736Z,100153.00
2022-11-29T01:39:06.846Z,100168.00
2022-11-29T01:41:38.499Z,100167.00
2022-11-29T01:44:29.173Z,100158.00
2022-11-29T01:46:59.699Z,100160.00
2022-11-29T01:49:33.532Z,100164.00
2022-11-29T01:52:05.540Z,100163.00
2022-11-29T01:54:36.230Z,100169.00
2022-11-29T01:57:08.449Z,100160.00
2022-11-29T01:59:40.064Z,100156.00
2022-11-29T02:02:14.904Z,100164.00
2022-11-29T02:04:46.854Z,100172.00
2022-11-29T02:07:16.545Z,100168.00
2022-11-29T02:09:45.362Z,100162.00
2022-11-29T02:12:24.609Z,100166.00
2022-11-29T02:15:08.230Z,100166.00
2022-11-29T02:17:53.316Z,100170.00
2022-11-29T02:20:50.357Z,100176.00
2022-11-29T02:23:57.378Z,100174.00
2022-11-29T02:26:46.432Z,100183.00
2022-11-29T02:29:50.100Z,100181.00
2022-11-29T02:32:50.096Z,100182.00
2022-11-29T02:35:38.401Z,100186.00
2022-11-29T02:38:26.759Z,100189.00
2022-11-29T02:41:11.977Z,100193.00
2022-11-29T02:44:24.179Z,100181.00
2022-11-29T02:47:07.466Z,100185.00
2022-11-29T02:49:54.796Z,100184.00
2022-11-29T02:52:30.770Z,100184.00
2022-11-29T02:55:06.112Z,100186.00
2022-11-29T02:57:44.503Z,100191.00
2022-11-29T03:00:17.181Z,100205.00
2022-11-29T03:02:54.523Z,100203.00
2022-11-29T03:05:33.476Z,100195.00
2022-11-29T03:08:10.914Z,100197.00
2022-11-29T03:10:46.518Z,100196.00
2022-11-29T03:13:22.302Z,100198.00
2022-11-29T03:15:59.422Z,100196.00
2022-11-29T03:18:38.479Z,100204.00
2022-11-29T03:21:20.081Z,100199.00
2022-11-29T03:23:52.118Z,100204.00
2022-11-29T03:26:25.967Z,100211.00
2022-11-29T03:29:07.077Z,100208.00
2022-11-29T03:31:40.010Z,100206.00
2022-11-29T03:34:17.465Z,100206.00
2022-11-29T03:36:54.540Z,100199.00
2022-11-29T03:39:30.040Z,100213.00
2022-11-29T03:42:03.853Z,100207.00
2022-11-29T03:44:39.332Z,100209.00
2022-11-29T03:47:12.734Z,100212.00
2022-11-29T03:49:48.843Z,100209.00
2022-11-29T03:52:24.067Z,100205.00
2022-11-29T03:55:25.327Z,100211.00
2022-11-29T03:58:10.454Z,100216.00
2022-11-29T04:01:02.378Z,100209.00
2022-11-29T04:04:06.286Z,100211.00
2022-11-29T04:06:51.884Z,100208.00
2022-11-29T04:09:57.959Z,100213.00
2022-11-29T04:13:08.013Z,100216.00
2022-11-29T04:16:12.227Z,100220.00
2022-11-29T04:19:09.835Z,100214.00
2022-11-29T04:22:09.299Z,100212.00
2022-11-29T04:25:05.693Z,100221.00
2022-11-29T04:27:42.009Z,100223.00
2022-11-29T04:30:18.958Z,100218.00
2022-11-29T04:33:30.259Z,100235.00
2022-11-29T04:36:20.787Z,100230.00
2022-11-29T04:39:12.749Z,100221.00
2022-11-29T04:42:25.888Z,100231.00
2022-11-29T04:45:09.460Z,100228.00
2022-11-29T04:47:56.654Z,100240.00
2022-11-29T04:50:37.281Z,100238.00
2022-11-29T04:53:46.166Z,100241.00
2022-11-29T04:56:23.107Z,100235.00
2022-11-29T04:59:00.325Z,100249.00
2022-11-29T05:01:38.059Z,100249.00
2022-11-29T05:04:14.971Z,100241.00
2022-11-29T05:06:52.285Z,100247.00
2022-11-29T05:09:28.758Z,100242.00
2022-11-29T05:12:05.931Z,100247.00
2022-11-29T05:14:51.271Z,100247.00
2022-11-29T05:17:39.019Z,100249.00
2022-11-29T05:20:27.514Z,100255.00
2022-11-29T05:23:13.652Z,100263.00
2022-11-29T05:25:50.436Z,100261.00
2022-11-29T05:28:26.946Z,100260.00
2022-11-29T05:31:30.627Z,100268.00
2022-11-29T05:34:34.670Z,100267.00
2022-11-29T05:37:16.961Z,100259.00
2022-11-29T05:39:58.612Z,100271.00
2022-11-29T05:42:46.512Z,100267.00
2022-11-29T05:45:20.622Z,100257.00
2022-11-29T05:47:56.137Z,100272.00
2022-11-29T05:50:30.022Z,100266.00
2022-11-29T05:53:03.268Z,100263.00
2022-11-29T05:55:42.403Z,100269.00
2022-11-29T05:58:19.873Z,100267.00
2022-11-29T06:00:53.082Z,100270.00
2022-11-29T06:03:30.022Z,100277.00
2022-11-29T06:06:01.442Z,100282.00
2022-11-29T06:08:38.652Z,100278.00
2022-11-29T06:11:15.456Z,100285.00
2022-11-29T06:13:54.610Z,100281.00
2022-11-29T06:16:51.962Z,100288.00
2022-11-29T06:19:55.580Z,100292.00
2022-11-29T06:22:50.597Z,100292.00
2022-11-29T06:25:33.944Z,100293.00
2022-11-29T06:28:23.546Z,100313.00
2022-11-29T06:31:02.065Z,100303.00
2022-11-29T06:33:40.733Z,100307.00
2022-11-29T06:36:17.115Z,100308.00
2022-11-29T06:38:46.679Z,100308.00
2022-11-29T06:41:20.309Z,100313.00
2022-11-29T06:43:49.624Z,100308.00
2022-11-29T06:46:27.937Z,100312.00
2022-11-29T06:49:04.499Z,100308.00
2022-11-29T06:51:41.466Z,100311.00
2022-11-29T06:54:24.943Z,100317.00
2022-11-29T06:57:01.800Z,100320.00
2022-11-29T06:59:44.592Z,100326.00
2022-11-29T07:02:29.349Z,100324.00
2022-11-29T07:05:10.991Z,100321.00
2022-11-29T07:07:42.355Z,100325.00
2022-11-29T07:10:17.320Z,100326.00
2022-11-29T07:12:47.414Z,100336.00
2022-11-29T07:15:18.299Z,100322.00
2022-11-29T07:18:04.872Z,100337.00
2022-11-29T07:20:40.985Z,100332.00
2022-11-29T07:23:20.475Z,100340.00
2022-11-29T07:25:58.289Z,100339.00
2022-11-29T07:28:39.172Z,100341.00
2022-11-29T07:31:12.977Z,100345.00
2022-11-29T07:33:51.758Z,100358.00
2022-11-29T07:36:26.417Z,100362.00
2022-11-29T07:39:05.150Z,100347.00
2022-11-29T07:41:41.805Z,100347.00
2022-11-29T07:44:21.321Z,100348.00
2022-11-29T07:46:50.056Z,100361.00
2022-11-29T07:49:18.926Z,100358.00
2022-11-29T07:51:47.677Z,100365.00
2022-11-29T07:54:19.864Z,100368.00
2022-11-29T07:56:48.762Z,100363.00
2022-11-29T07:59:17.654Z,100372.00
2022-11-29T08:01:46.428Z,100364.00
2022-11-29T08:04:15.192Z,100373.00
2022-11-29T08:06:44.600Z,100370.00
2022-11-29T08:09:13.309Z,100362.00
2022-11-29T08:11:43.375Z,100364.00
2022-11-29T08:14:12.054Z,100378.00
2022-11-29T08:16:40.783Z,100374.00
2022-11-29T08:19:09.484Z,100377.00
2022-11-29T08:21:38.136Z,100367.00
2022-11-29T08:24:07.236Z,100368.00
2022-11-29T08:26:35.987Z,100368.00
2022-11-29T08:29:06.146Z,100379.00
2022-11-29T08:31:35.150Z,100381.00
2022-11-29T08:34:05.848Z,100371.00
2022-11-29T08:36:34.810Z,100383.00
2022-11-29T08:39:08.881Z,100380.00
2022-11-29T08:41:38.553Z,100377.00
2022-11-29T08:44:09.247Z,100385.00
2022-11-29T08:46:55.307Z,100381.00
2022-11-29T08:49:24.058Z,100388.00
2022-11-29T08:52:13.571Z,100387.00
2022-11-29T08:54:41.280Z,100386.00
2022-11-29T08:57:38.763Z,100384.00
2022-11-29T09:00:00.308Z,100406.00
2022-11-29T09:02:29.098Z,100394.00
2022-11-29T09:04:57.778Z,100404.00
2022-11-29T09:07:26.571Z,100404.00
2022-11-29T09:09:55.366Z,100399.00
2022-11-29T09:12:24.133Z,100410.00
2022-11-29T09:14:52.851Z,100422.00
2022-11-29T09:17:22.896Z,100412.00
2022-11-29T09:19:51.631Z,100411.00
2022-11-29T09:22:20.312Z,100412.00
2022-11-29T09:24:49.124Z,100415.00
2022-11-29T09:27:17.942Z,100413.00
2022-11-29T09:29:46.603Z,100417.00
2022-11-29T09:32:15.320Z,100407.00
2022-11-29T09:34:45.827Z,100412.00
2022-11-29T09:37:14.808Z,100416.00
2022-11-29T09:39:43.445Z,100419.00
2022-11-29T09:42:33.446Z,100415.00
2022-11-29T09:45:07.583Z,100422.00
2022-11-29T09:48:09.574Z,100419.00
2022-11-29T09:50:45.129Z,100421.00
2022-11-29T09:53:32.319Z,100423.00
2022-11-29T09:56:19.623Z,100422.00
2022-11-29T09:58:53.066Z,100423.00
2022-11-29T10:01:26.109Z,100416.00
2022-11-29T10:03:57.675Z,100423.00
2022-11-29T10:06:32.027Z,100426.00
2022-11-29T10:09:05.487Z,100431.00
2022-11-29T10:11:40.923Z,100427.00
2022-11-29T10:14:17.914Z,100422.00
2022-11-29T10:16:52.219Z,100428.00
2022-11-29T10:19:28.929Z,100426.00
2022-11-29T10:22:04.999Z,100428.00
2022-11-29T10:24:35.729Z,100430.00
2022-11-29T10:27:06.777Z,100429.00
2022-11-29T10:29:35.423Z,100430.00
2022-11-29T10:32:10.251Z,100431.00
2022-11-29T10:34:39.246Z,100428.00
2022-11-29T10:37:14.124Z,100428.00
2022-11-29T10:39:48.263Z,100432.00
2022-11-29T10:42:36.954Z,100432.00
2022-11-29T10:45:11.805Z,100430.00
2022-11-29T10:47:40.604Z,100431.00
2022-11-29T10:50:14.689Z,100429.00
2022-11-29T10:52:44.817Z,100432.00
2022-11-29T10:55:17.166Z,100434.00
2022-11-29T10:58:12.357Z,100436.00
2022-11-29T11:00:53.370Z,100431.00
2022-11-29T11:03:37.884Z,100441.00
2022-11-29T11:06:11.959Z,100436.00
2022-11-29T11:08:44.825Z,100448.00
2022-11-29T11:11:14.901Z,100436.00
2022-11-29T11:13:44.258Z,100437.00
2022-11-29T11:16:18.427Z,100437.00
2022-11-29T11:18:48.501Z,100441.00
2022-11-29T11:21:20.603Z,100432.00
2022-11-29T11:23:57.297Z,100434.00
2022-11-29T11:26:27.162Z,100430.00
2022-11-29T11:29:00.036Z,100433.00
2022-11-29T11:31:31.942Z,100443.00
2022-11-29T11:34:34.503Z,100437.00
2022-11-29T11:37:23.003Z,100443.00
2022-11-29T11:39:55.799Z,100443.00
2022-11-29T11:42:42.118Z,100446.00
2022-11-29T11:45:34.153Z,100434.00
2022-11-29T11:48:06.428Z,100440.00
2022-11-29T11:50:43.888Z,100450.00
2022-11-29T11:53:22.559Z,100447.00
2022-11-29T11:56:00.509Z,100441.00
2022-11-29T11:59:20.794Z,100448.00
2022-11-29T12:01:56.924Z,100450.00
2022-11-29T12:04:37.594Z,100453.00
2022-11-29T12:07:33.754Z,100447.00
2022-11-29T12:10:34.888Z,100461.00
2022-11-29T12:13:08.610Z,100461.00
2022-11-29T12:15:53.878Z,100468.00
2022-11-29T12:18:35.127Z,100455.00
2022-11-29T12:21:20.180Z,100466.00
2022-11-29T12:23:58.046Z,100458.00
2022-11-29T12:26:58.047Z,100457.00
2022-11-29T12:29:36.515Z,100459.00
2022-11-29T12:32:40.906Z,100463.00
2022-11-29T12:35:42.140Z,100455.00
2022-11-29T12:38:52.750Z,100466.00
2022-11-29T12:41:55.103Z,100466.00
2022-11-29T12:44:54.881Z,100467.00
2022-11-29T12:47:51.884Z,100470.00
2022-11-29T12:50:47.593Z,100471.00
2022-11-29T12:53:45.216Z,100465.00
2022-11-29T12:56:29.515Z,100474.00
2022-11-29T12:59:34.553Z,100473.00
2022-11-29T13:02:27.746Z,100482.00
2022-11-29T13:05:24.620Z,100485.00
2022-11-29T13:08:11.214Z,100479.00
2022-11-29T13:10:58.020Z,100485.00
2022-11-29T13:13:42.140Z,100488.00
2022-11-29T13:16:40.148Z,100491.00
2022-11-29T13:19:21.168Z,100491.00
2022-11-29T13:22:00.086Z,100496.00
2022-11-29T13:24:52.921Z,100491.00
2022-11-29T13:27:26.374Z,100488.00
2022-11-29T13:30:08.446Z,100489.00
2022-11-29T13:33:12.420Z,100482.00
2022-11-29T13:35:55.085Z,100486.00
2022-11-29T13:38:33.894Z,100489.00
2022-11-29T13:41:25.474Z,100487.00
2022-11-29T13:44:06.940Z,100492.00
2022-11-29T13:46:54.240Z,100495.00
2022-11-29T13:49:55.061Z,100491.00
2022-11-29T13:52:48.440Z,100495.00
2022-11-29T13:55:34.482Z,100506.00
2022-11-29T13:58:36.806Z,100501.00
2022-11-29T14:01:12.883Z,100506.00
2022-11-29T14:03:55.269Z,100507.00
2022-11-29T14:06:40.548Z,100513.00
2022-11-29T14:09:30.284Z,100517.00
2022-11-29T14:12:36.912Z,100506.00
2022-11-29T14:15:26.849Z,100519.00
2022-11-29T14:18:03.264Z,100513.00
2022-11-29T14:21:06.625Z,100515.00
2022-11-29T14:23:51.699Z,100517.00
2022-11-29T14:26:35.262Z,100512.00
2022-11-29T14:30:03.258Z,100507.00
2022-11-29T14:33:00.513Z,100513.00
2022-11-29T14:35:39.827Z,100506.00
2022-11-29T14:38:37.306Z,100517.00
2022-11-29T14:41:49.295Z,100514.00
2022-11-29T14:44:22.114Z,100517.00
2022-11-29T14:47:02.468Z,100514.00
2022-11-29T14:49:50.133Z,100512.00
2022-11-29T14:52:25.333Z,100508.00
2022-11-29T14:55:15.145Z,100518.00
2022-11-29T14:58:22.962Z,100522.00
2022-11-29T15:01:12.610Z,100533.00
2022-11-29T15:03:54.486Z,100524.00
2022-11-29T15:06:32.689Z,100527.00
2022-11-29T15:09:22.663Z,100536.00
2022-11-29T15:12:06.234Z,100538.00
2022-11-29T15:18:09.239Z,100535.00
2022-11-29T15:20:54.615Z,100534.00
2022-11-29T15:23:31.897Z,100544.00
2022-11-29T15:26:20.288Z,100539.00
2022-11-29T15:29:02.426Z,100549.00
2022-11-29T15:31:52.444Z,100550.00
2022-11-29T15:34:46.157Z,100550.00
2022-11-29T15:37:58.175Z,100559.00
2022-11-29T15:40:37.256Z,100558.00
2022-11-29T15:43:36.537Z,100561.00
2022-11-29T15:46:25.613Z,100555.00
2022-11-29T15:49:30.787Z,100567.00
2022-11-29T15:52:09.925Z,100566.00
2022-11-29T15:54:47.183Z,100565.00
2022-11-29T15:57:36.144Z,100570.00
2022-11-29T16:00:18.478Z,100575.00
2022-11-29T16:02:53.387Z,100582.00
2022-11-29T16:05:31.794Z,100580.00
2022-11-29T16:08:14.605Z,100582.00
2022-11-29T16:11:06.289Z,100583.00
2022-11-29T16:13:38.914Z,100578.00
2022-11-29T16:16:17.831Z,100596.00
2022-11-29T16:18:48.697Z,100593.00
2022-11-29T16:21:27.224Z,100594.00
2022-11-29T16:23:57.319Z,100594.00
2022-11-29T16:26:32.161Z,100606.00
2022-11-29T16:29:01.509Z,100597.00
2022-11-29T16:31:35.075Z,100601.00
2022-11-29T16:34:10.056Z,100602.00
2022-11-29T16:36:40.852Z,100608.00
2022-11-29T16:39:22.986Z,100606.00
2022-11-29T16:42:07.925Z,100611.00
2022-11-29T16:45:04.670Z,100612.00
2022-11-29T16:47:46.037Z,100616.00
2022-11-29T16:50:18.496Z,100622.00
2022-11-29T16:52:56.080Z,100625.00
2022-11-29T16:55:25.564Z,100622.00
2022-11-29T16:57:54.276Z,100617.00
2022-11-29T17:00:31.217Z,100628.00
2022-11-29T17:03:00.316Z,100627.00
2022-11-29T17:05:29.304Z,100625.00
2022-11-29T17:07:59.851Z,100631.00
2022-11-29T17:10:28.944Z,100621.00
2022-11-29T17:12:57.659Z,100633.00
2022-11-29T17:15:28.812Z,100627.00
2022-11-29T17:17:58.615Z,100629.00
2022-11-29T17:20:27.269Z,100632.00
2022-11-29T17:22:55.875Z,100639.00
2022-11-29T17:25:25.927Z,100636.00
2022-11-29T17:27:54.544Z,100635.00
2022-11-29T17:30:23.240Z,100641.00
2022-11-29T17:32:51.863Z,100636.00
2022-11-29T17:35:20.537Z,100640.00
2022-11-29T17:37:49.162Z,100635.00
2022-11-29T17:40:18.092Z,100641.00
2022-11-29T17:42:48.535Z,100648.00
2022-11-29T17:45:17.250Z,100652.00
2022-11-29T17:47:45.876Z,100662.00
2022-11-29T17:50:14.489Z,100655.00
2022-11-29T17:52:43.251Z,100660.00
2022-11-29T17:55:12.076Z,100672.00
2022-11-29T17:57:40.689Z,100669.00
2022-11-29T18:00:13.447Z,100672.00
2022-11-29T18:02:42.174Z,100672.00
2022-11-29T18:05:11.081Z,100667.00
2022-11-29T18:07:57.835Z,100672.00
2022-11-29T18:10:27.625Z,100677.00
2022-11-29T18:12:57.380Z,100677.00
2022-11-29T18:15:27.417Z,100679.00
2022-11-29T18:17:56.072Z,100678.00
2022-11-29T18:20:25.068Z,100675.00
2022-11-29T18:22:54.374Z,100678.00
2022-11-29T18:25:39.827Z,100675.00
2022-11-29T18:28:11.263Z,100681.00
2022-11-29T18:30:41.334Z,100680.00
2022-11-29T18:33:09.978Z,100678.00
2022-11-29T18:35:38.566Z,100678.00
2022-11-29T18:38:15.211Z,100677.00
2022-11-29T18:40:45.764Z,100680.00
2022-11-29T18:43:16.619Z,100688.00
2022-11-29T18:45:46.625Z,100687.00
2022-11-29T18:48:18.052Z,100683.00
2022-11-29T18:54:33.782Z,100695.00
2022-11-29T18:57:02.569Z,100686.00
2022-11-29T18:59:51.194Z,100693.00
2022-11-29T19:02:26.571Z,100690.00
2022-11-29T19:05:12.356Z,100703.00
2022-11-29T19:07:46.814Z,100694.00
2022-11-29T19:10:21.642Z,100693.00
2022-11-29T19:12:56.168Z,100699.00
2022-11-29T19:15:30.970Z,100695.00
2022-11-29T19:18:01.245Z,100703.00
2022-11-29T19:20:35.887Z,100696.00
2022-11-29T19:23:09.907Z,100697.00
2022-11-29T19:25:38.821Z,100703.00
2022-11-29T19:28:15.232Z,100704.00
2022-11-29T19:30:45.885Z,100704.00
2022-11-29T19:33:16.822Z,100706.00
2022-11-29T19:35:48.630Z,100714.00
2022-11-29T19:38:28.175Z,100702.00
2022-11-29T19:41:07.711Z,100708.00
2022-11-29T19:43:37.113Z,100708.00
2022-11-29T19:46:15.508Z,100709.00
2022-11-29T19:48:49.114Z,100699.00
2022-11-29T19:51:27.415Z,100701.00
2022-11-29T19:54:04.273Z,100705.00
2022-11-29T19:56:39.075Z,100708.00
2022-11-29T19:59:37.911Z,100711.00
2022-11-29T20:02:11.000Z,100711.00
2022-11-29T20:04:49.974Z,100708.00
2022-11-29T20:07:24.870Z,100698.00
2022-11-29T20:10:03.830Z,100715.00
2022-11-29T20:12:51.311Z,100707.00
2022-11-29T20:15:27.546Z,100715.00
2022-11-29T20:17:56.867Z,100716.00
2022-11-29T20:20:31.047Z,100720.00
2022-11-29T20:26:16.460Z,100726.00
2022-11-29T20:28:50.287Z,100732.00
2022-11-29T20:31:24.473Z,100727.00
2022-11-29T20:33:58.892Z,100729.00
2022-11-29T20:36:48.579Z,100733.00
2022-11-29T20:39:32.740Z,100733.00
2022-11-29T20:42:45.666Z,100727.00
2022-11-29T20:45:18.389Z,100739.00
2022-11-29T20:47:58.915Z,100738.00
2022-11-29T20:50:34.417Z,100735.00
2022-11-29T20:53:24.102Z,100740.00
2022-11-29T20:55:52.800Z,100741.00
2022-11-29T20:58:21.731Z,100737.00
2022-11-29T21:00:50.654Z,100737.00
2022-11-29T21:03:20.157Z,100740.00
2022-11-29T21:05:49.812Z,100732.00
2022-11-29T21:08:22.111Z,100737.00
2022-11-29T21:10:51.276Z,100733.00
2022-11-29T21:13:21.200Z,100738.00
2022-11-29T21:15:51.259Z,100735.00
2022-11-29T21:18:24.476Z,100741.00
2022-11-29T21:21:11.069Z,100740.00
2022-11-29T21:23:53.043Z,100748.00
2022-11-29T21:26:25.576Z,100749.00
2022-11-29T21:29:05.569Z,100745.00
2022-11-29T21:31:34.702Z,100746.00
2022-11-29T21:34:03.784Z,100745.00
2022-11-29T21:36:32.471Z,100755.00
2022-11-29T21:39:05.389Z,100750.00
2022-11-29T21:41:34.470Z,100749.00
2022-11-29T21:44:07.687Z,100746.00
2022-11-29T21:46:36.845Z,100747.00
2022-11-29T21:49:06.158Z,100758.00
2022-11-29T21:51:34.810Z,100751.00
2022-11-29T21:54:04.876Z,100758.00
2022-11-29T21:56:33.503Z,100757.00
2022-11-29T21:59:02.138Z,100759.00
2022-11-29T22:01:30.794Z,100768.00
2022-11-29T22:03:59.384Z,100764.00
2022-11-29T22:06:29.356Z,100762.00
2022-11-29T22:08:59.869Z,100758.00
2022-11-29T22:11:34.419Z,100764.00
2022-11-29T22:14:18.001Z,100765.00
2022-11-29T22:16:48.928Z,100764.00
2022-11-29T22:19:19.087Z,100767.00
2022-11-29T22:21:49.964Z,100761.00
2022-11-29T22:24:20.201Z,100772.00
2022-11-29T22:26:51.852Z,100768.00
2022-11-29T22:29:20.885Z,100764.00
2022-11-29T22:31:52.769Z,100759.00
2022-11-29T22:34:22.226Z,100763.00
2022-11-29T22:36:50.850Z,100768.00
2022-11-29T22:39:19.499Z,100765.00
2022-11-29T22:41:53.898Z,100771.00
2022-11-29T22:44:23.652Z,100766.00
2022-11-29T22:46:52.608Z,100768.00
2022-11-29T22:49:21.379Z,100768.00
2022-11-29T22:51:49.965Z,100772.00
2022-11-29T22:54:18.546Z,100768.00
2022-11-29T22:56:47.287Z,100780.00
2022-11-29T22:59:17.265Z,100768.00
2022-11-29T23:01:47.219Z,100765.00
2022-11-29T23:04:15.905Z,100783.00
2022-11-29T23:06:45.775Z,100768.00
2022-11-29T23:09:16.954Z,100776.00
2022-11-29T23:11:50.863Z,100770.00
2022-11-29T23:14:22.039Z,100776.00
2022-11-29T23:16:50.935Z,100766.00
2022-11-29T23:19:19.918Z,100776.00
2022-11-29T23:21:48.671Z,100779.00
2022-11-29T23:24:17.607Z,100780.00
2022-11-29T23:26:48.050Z,100780.00
2022-11-29T23:29:20.270Z,100778.00
2022-11-29T23:31:49.208Z,100783.00
2022-11-29T23:34:18.024Z,100780.00
2022-11-29T23:36:52.402Z,100777.00
2022-11-29T23:39:21.531Z,100780.00
2022-11-29T23:41:50.142Z,100776.00
2022-11-29T23:44:20.096Z,100778.00
2022-11-29T23:46:48.665Z,100769.00
2022-11-29T23:49:17.249Z,100776.00
2022-11-29T23:51:46.029Z,100783.00
2022-11-29T23:54:14.610Z,100780.00
2022-11-29T23:56:43.201Z,100785.00
2022-11-29T23:59:11.782Z,100781.00
